Time;durP1;ratioP1;P1;durP2;ratioP2;P2;SDS_P1;SDS_P2;PMS_P1;PMS_P2;Temp;Humidity;BMP_temperature;BMP_pressure;BME280_temperature;BME280_humidity;BME280_pressure;Samples;Min_cycle;Max_cycle;Signal;HPM_P1;HPM_P2
2022/05/08 00:00:08;;;;;;;12.40;5.65;;;;;;;7.96;84.24;101177.44;5014169;28;20033;-79
2022/05/08 00:02:35;;;;;;;12.40;5.50;;;;;;;8.01;84.50;101166.66;5014396;28;20092;-78
2022/05/08 00:05:00;;;;;;;12.50;5.45;;;;;;;7.91;85.14;101172.03;5013924;28;20048;-76
2022/05/08 00:07:26;;;;;;;15.75;6.20;;;;;;;6.93;87.18;101044.63;5014108;28;20030;-78
2022/05/08 00:09:51;;;;;;;11.20;5.70;;;;;;;7.52;87.49;101146.59;4972206;28;20045;-81
2022/05/08 00:12:17;;;;;;;14.50;6.75;;;;;;;7.38;87.49;101121.78;4972025;28;20042;-81
2022/05/08 00:14:44;;;;;;;13.02;5.82;;;;;;;7.55;86.95;101128.81;4972438;28;20049;-82
2022/05/08 00:17:11;;;;;;;12.85;5.78;;;;;;;7.53;87.19;101140.69;4972317;28;20031;-78
2022/05/08 00:19:49;;;;;;;14.35;6.07;;;;;;;7.73;86.21;101149.56;4972097;28;20149;-80
2022/05/08 00:22:15;;;;;;;11.60;5.60;;;;;;;7.78;85.78;101152.44;4972412;28;20065;-81
2022/05/08 00:24:40;;;;;;;14.45;6.63;;;;;;;7.83;86.10;101152.72;4955755;28;20570;-82
2022/05/08 00:27:06;;;;;;;15.38;6.32;;;;;;;7.91;85.43;101162.66;4972250;28;20122;-83
2022/05/08 00:29:32;;;;;;;10.68;5.90;;;;;;;7.90;85.56;101168.56;4972099;28;20043;-82
2022/05/08 00:31:57;;;;;;;14.02;5.50;;;;;;;7.87;85.65;101159.78;4971891;28;20498;-83
2022/05/08 00:34:24;;;;;;;13.43;6.03;;;;;;;8.04;85.23;101171.06;4972106;28;20121;-81
2022/05/08 00:36:49;;;;;;;13.90;6.20;;;;;;;7.73;85.65;101138.41;4971753;28;20126;-86
2022/05/08 00:39:18;;;;;;;11.75;6.38;;;;;;;7.77;86.11;101161.81;4970792;28;20134;-83
2022/05/08 00:42:04;;;;;;;12.65;7.10;;;;;;;7.51;86.15;101111.44;4992830;28;20120;-80
2022/05/08 00:44:29;;;;;;;12.20;5.85;;;;;;;7.47;86.28;101135.19;4972286;28;20101;-80
2022/05/08 00:46:55;;;;;;;16.13;6.68;;;;;;;7.47;87.56;101139.44;4972230;28;20508;-84
2022/05/08 00:49:20;;;;;;;11.13;5.80;;;;;;;7.54;87.76;101155.31;4972255;28;20075;-79
2022/05/08 00:51:48;;;;;;;14.85;6.78;;;;;;;7.66;88.21;101174.81;4971360;28;20038;-79
2022/05/08 00:54:15;;;;;;;15.35;6.35;;;;;;;7.52;88.76;101151.75;4971467;28;20054;-83
2022/05/08 00:56:41;;;;;;;12.48;5.72;;;;;;;7.66;89.42;101172.25;4971550;28;20537;-80
2022/05/08 00:59:06;;;;;;;16.38;6.25;;;;;;;7.56;89.78;101148.59;4971445;28;20101;-79
2022/05/08 01:01:32;;;;;;;12.68;6.40;;;;;;;7.33;90.65;101118.94;4971382;28;20099;-80
2022/05/08 01:03:57;;;;;;;10.68;6.10;;;;;;;7.42;91.14;101137.47;4971440;28;20050;-80
2022/05/08 01:06:23;;;;;;;15.15;6.68;;;;;;;7.32;90.96;101119.72;4970847;28;20035;-80
2022/05/08 01:08:50;;;;;;;13.38;6.28;;;;;;;7.68;90.90;101181.84;4971235;28;20027;-76
2022/05/08 01:11:16;;;;;;;15.18;7.38;;;;;;;7.72;90.77;101183.78;4971236;28;20125;-82
2022/05/08 01:13:43;;;;;;;14.38;7.50;;;;;;;7.58;91.29;101159.81;4939222;28;20043;-83
2022/05/08 01:16:11;;;;;;;17.60;7.97;;;;;;;7.65;91.17;101178.19;4985654;28;20038;-80
2022/05/08 01:18:37;;;;;;;12.63;6.40;;;;;;;7.58;92.23;101184.66;5011838;28;20033;-83
2022/05/08 01:21:04;;;;;;;11.20;7.13;;;;;;;7.37;91.96;101132.84;5011423;28;20460;-82
2022/05/08 01:23:29;;;;;;;11.70;6.78;;;;;;;7.54;92.56;101181.00;5011842;28;20432;-83
2022/05/08 01:25:56;;;;;;;14.13;7.13;;;;;;;7.55;93.39;101179.31;5011659;28;20038;-79
2022/05/08 01:28:24;;;;;;;14.13;6.93;;;;;;;7.31;93.42;101160.72;5011638;28;20407;-80
2022/05/08 01:30:52;;;;;;;13.10;6.75;;;;;;;7.37;93.27;101179.09;5011914;28;20034;-78
2022/05/08 01:33:18;;;;;;;12.63;7.18;;;;;;;7.19;93.14;101159.19;5011541;28;20116;-80
2022/05/08 01:35:45;;;;;;;15.88;7.75;;;;;;;7.05;92.00;101121.50;5010140;28;20065;-78
2022/05/08 01:38:13;;;;;;;11.30;6.65;;;;;;;7.35;91.43;101163.59;5011010;28;20045;-79
2022/05/08 01:40:39;;;;;;;19.17;7.65;;;;;;;7.37;90.54;101177.41;5011587;28;20110;-78
2022/05/08 01:43:05;;;;;;;10.40;6.05;;;;;;;7.10;90.59;101148.34;5011562;28;20029;-78
2022/05/08 01:45:31;;;;;;;13.13;6.70;;;;;;;7.21;90.33;101175.56;4970057;28;20046;-79
2022/05/08 01:50:41;;;;;;;10.52;6.30;;;;;;;7.14;89.59;101160.59;4968736;28;20082;-79
2022/05/08 01:53:07;;;;;;;13.35;6.63;;;;;;;7.11;89.33;101175.78;4970055;28;20035;-80
2022/05/08 01:55:32;;;;;;;13.13;6.97;;;;;;;7.18;90.06;101177.03;4970394;28;20105;-78
2022/05/08 01:57:58;;;;;;;13.73;6.80;;;;;;;7.29;89.47;101150.38;4970137;28;20038;-79
2022/05/08 02:00:25;;;;;;;12.18;6.82;;;;;;;7.44;88.24;101181.25;4969792;28;20117;-77
2022/05/08 02:02:51;;;;;;;12.85;6.40;;;;;;;7.25;89.03;101151.88;4968979;28;20046;-76
2022/05/08 02:05:18;;;;;;;14.77;7.22;;;;;;;7.22;89.86;101163.63;4969244;28;20046;-76
2022/05/08 02:07:45;;;;;;;12.27;7.03;;;;;;;7.11;90.52;101143.28;4969430;28;20046;-77
2022/05/08 02:10:13;;;;;;;11.05;5.97;;;;;;;6.82;91.00;101120.06;4969016;28;20042;-77
2022/05/08 02:12:39;;;;;;;10.02;6.10;;;;;;;6.99;91.45;101147.69;4970033;28;20031;-78
2022/05/08 02:15:09;;;;;;;12.75;6.53;;;;;;;7.06;91.22;101142.13;4969879;28;20035;-79
2022/05/08 02:17:35;;;;;;;13.20;7.63;;;;;;;7.10;91.60;101153.47;5007359;28;20054;-78
2022/05/08 02:20:01;;;;;;;9.80;6.10;;;;;;;6.95;92.00;101146.59;5010591;28;20045;-78
2022/05/08 02:22:27;;;;;;;13.38;6.90;;;;;;;6.92;92.14;101171.19;5009943;28;20036;-78
2022/05/08 02:24:52;;;;;;;10.43;6.75;;;;;;;6.72;93.08;101165.69;5005652;28;20128;-78
2022/05/08 02:27:18;;;;;;;16.65;8.60;;;;;;;6.66;94.42;101129.38;5009677;28;20409;-78
2022/05/08 02:29:50;;;;;;;16.25;7.00;;;;;;;6.85;93.32;101151.94;4991330;28;20022;-78
2022/05/08 02:32:16;;;;;;;17.10;9.38;;;;;;;6.95;92.71;101164.56;5010613;28;20083;-75
2022/05/08 02:34:42;;;;;;;15.65;6.47;;;;;;;6.83;92.96;101174.06;5011306;28;20030;-78
2022/05/08 02:37:07;;;;;;;12.95;6.93;;;;;;;6.60;94.02;101150.41;5011198;28;20048;-77
2022/05/08 02:39:33;;;;;;;16.40;7.63;;;;;;;6.52;94.58;101146.44;5011126;28;20042;-78
2022/05/08 02:41:58;;;;;;;13.65;7.35;;;;;;;6.44;94.57;101139.94;5011228;28;20034;-78
2022/05/08 02:44:24;;;;;;;12.07;7.30;;;;;;;6.48;94.90;101137.66;5010674;28;20440;-78
2022/05/08 02:46:49;;;;;;;11.95;7.10;;;;;;;6.41;95.20;101161.13;5011177;28;20080;-77
2022/05/08 02:49:15;;;;;;;15.88;7.05;;;;;;;6.20;97.54;101164.88;5011201;28;20119;-78
2022/05/08 02:51:40;;;;;;;18.90;8.82;;;;;;;6.09;97.46;101118.94;5010886;28;20038;-79
2022/05/08 02:54:05;;;;;;;12.38;7.32;;;;;;;6.21;97.28;101123.94;5011003;28;20029;-78
2022/05/08 02:59:15;;;;;;;19.73;7.93;;;;;;;6.35;96.13;101139.34;5010642;28;20044;-76
2022/05/08 03:01:41;;;;;;;19.10;7.53;;;;;;;6.63;94.13;101160.84;5010266;28;20033;-78
2022/05/08 03:04:06;;;;;;;16.70;8.05;;;;;;;6.51;95.58;101130.97;5010615;28;20107;-77
2022/05/08 03:06:32;;;;;;;11.98;7.03;;;;;;;6.46;95.51;101143.50;5010674;28;20037;-78
2022/05/08 03:08:58;;;;;;;15.25;7.93;;;;;;;6.47;96.32;101165.78;4959724;28;20060;-75
2022/05/08 03:11:26;;;;;;;14.68;8.80;;;;;;;6.47;95.98;101148.72;5010331;28;20451;-79
2022/05/08 03:13:54;;;;;;;18.80;7.80;;;;;;;6.42;95.71;101138.97;5010534;28;20541;-76
2022/05/08 03:16:20;;;;;;;13.40;7.65;;;;;;;6.55;96.72;101173.97;4959498;28;20040;-79
2022/05/08 03:18:45;;;;;;;25.67;9.23;;;;;;;6.43;98.25;101181.75;5010947;28;20050;-78
2022/05/08 03:21:12;;;;;;;21.25;8.80;;;;;;;6.32;98.66;101151.16;5010596;28;20034;-77
2022/05/08 03:23:40;;;;;;;18.27;8.75;;;;;;;6.34;99.33;101155.53;5010400;28;20080;-78
2022/05/08 03:26:06;;;;;;;27.35;8.60;;;;;;;6.25;100.00;101182.31;5010678;28;20033;-77
2022/05/08 03:28:33;;;;;;;14.65;9.20;;;;;;;6.36;100.00;101171.91;5010753;28;20034;-77
2022/05/08 03:30:59;;;;;;;25.08;10.07;;;;;;;6.31;100.00;101157.09;5010534;28;20408;-79
2022/05/08 03:33:25;;;;;;;19.52;10.52;;;;;;;6.47;100.00;101165.78;5010385;28;20127;-77
2022/05/08 03:35:51;;;;;;;31.30;9.75;;;;;;;6.66;100.00;101184.94;5010461;28;20037;-78
2022/05/08 03:38:18;;;;;;;20.10;9.88;;;;;;;6.76;100.00;101187.28;5010030;28;20044;-77
2022/05/08 03:40:44;;;;;;;51.33;9.82;;;;;;;6.30;100.00;101196.34;5010215;28;20037;-77
2022/05/08 03:43:09;;;;;;;22.95;9.10;;;;;;;5.89;100.00;101171.38;5010482;28;20030;-77
2022/05/08 03:45:35;;;;;;;42.22;10.60;;;;;;;6.03;100.00;101185.16;5010397;28;20038;-76
2022/05/08 03:48:01;;;;;;;24.75;10.05;;;;;;;5.67;100.00;101179.31;5009572;28;20473;-76
2022/05/08 03:50:28;;;;;;;30.90;11.45;;;;;;;5.99;100.00;101199.44;5009697;28;20033;-77
2022/05/08 03:52:54;;;;;;;18.27;10.77;;;;;;;6.07;100.00;101178.53;5007920;28;20044;-74
2022/05/08 03:55:19;;;;;;;21.48;9.95;;;;;;;6.35;100.00;101196.66;5010371;28;20038;-78
2022/05/08 03:57:45;;;;;;;23.48;10.15;;;;;;;6.18;100.00;101193.00;5009936;28;20088;-80
2022/05/08 04:00:12;;;;;;;29.38;11.43;;;;;;;6.01;100.00;101193.50;5010473;28;20037;-76
2022/05/08 04:02:38;;;;;;;26.30;10.93;;;;;;;6.11;100.00;101199.38;5010071;28;20041;-79
2022/05/08 04:05:04;;;;;;;29.55;11.23;;;;;;;6.27;100.00;101200.41;5009962;28;20451;-80
2022/05/08 04:07:30;;;;;;;30.33;11.10;;;;;;;6.24;100.00;101201.09;5010093;28;20034;-78
2022/05/08 04:09:56;;;;;;;29.73;11.35;;;;;;;6.34;100.00;101199.13;5009982;28;20157;-77
2022/05/08 04:12:21;;;;;;;35.90;12.00;;;;;;;6.49;100.00;101192.41;5011837;28;20022;-77
2022/05/08 04:14:46;;;;;;;32.42;11.70;;;;;;;6.69;100.00;101203.09;5013853;28;20443;-76
2022/05/08 04:17:12;;;;;;;31.65;11.00;;;;;;;6.72;100.00;101198.16;5013897;28;20468;-77
2022/05/08 04:19:38;;;;;;;39.58;13.65;;;;;;;6.70;100.00;101177.50;4995952;28;20193;-75
2022/05/08 04:24:48;;;;;;;41.90;11.60;;;;;;;7.00;100.00;101210.19;5013403;28;20117;-77
2022/05/08 04:27:13;;;;;;;38.33;12.82;;;;;;;6.84;100.00;101195.47;5013533;28;20061;-75
2022/05/08 04:29:39;;;;;;;40.42;11.45;;;;;;;6.76;100.00;101192.44;5013335;28;20033;-78
2022/05/08 04:32:04;;;;;;;33.97;12.13;;;;;;;6.83;100.00;101199.72;5013469;28;20030;-76
2022/05/08 04:34:30;;;;;;;27.45;12.10;;;;;;;6.90;100.00;101194.22;5013431;28;20423;-78
2022/05/08 04:36:55;;;;;;;32.20;12.35;;;;;;;7.13;100.00;101210.16;4971747;28;20138;-76
2022/05/08 04:39:21;;;;;;;39.75;12.10;;;;;;;6.93;100.00;101185.81;4971885;28;20130;-75
2022/05/08 04:41:47;;;;;;;34.55;12.93;;;;;;;6.93;100.00;101211.47;4971967;28;20050;-80
2022/05/08 04:44:12;;;;;;;37.95;12.88;;;;;;;6.85;100.00;101182.72;4971710;28;20101;-76
2022/05/08 04:46:38;;;;;;;64.82;13.55;;;;;;;7.15;100.00;101220.53;4971864;28;20497;-78
2022/05/08 04:49:03;;;;;;;60.35;13.77;;;;;;;6.96;100.00;101202.25;4971804;28;20599;-77
2022/05/08 04:51:29;;;;;;;39.22;12.45;;;;;;;7.02;100.00;101177.81;4971421;28;20105;-76
2022/05/08 04:53:54;;;;;;;42.50;11.30;;;;;;;7.12;100.00;101169.88;4971710;28;20518;-77
2022/05/08 04:56:21;;;;;;;86.35;13.30;;;;;;;7.34;100.00;101194.28;4971499;28;20034;-77
2022/05/08 04:58:46;;;;;;;64.75;13.02;;;;;;;7.35;100.00;101198.66;4971590;28;20035;-77
2022/05/08 05:01:12;;;;;;;44.17;12.40;;;;;;;7.36;100.00;101205.56;4971441;28;20533;-74
2022/05/08 05:03:37;;;;;;;40.40;12.23;;;;;;;7.55;100.00;101221.31;4971499;28;20090;-76
2022/05/08 05:06:03;;;;;;;43.63;12.38;;;;;;;7.61;100.00;101213.09;4971105;28;20047;-79
2022/05/08 05:08:28;;;;;;;37.22;13.50;;;;;;;7.69;100.00;101229.88;5001581;28;20042;-78
2022/05/08 05:10:54;;;;;;;29.05;13.30;;;;;;;7.61;100.00;101193.44;5012793;28;20113;-77
2022/05/08 05:13:19;;;;;;;31.13;14.13;;;;;;;7.89;100.00;101231.06;5013058;28;20026;-78
2022/05/08 05:15:45;;;;;;;35.25;14.80;;;;;;;7.90;100.00;101230.28;5012605;28;20033;-78
2022/05/08 05:18:10;;;;;;;30.08;14.20;;;;;;;7.41;100.00;101116.81;5012492;28;20045;-78
2022/05/08 05:20:36;;;;;;;31.90;12.60;;;;;;;8.14;100.00;101229.97;5012507;28;20049;-78
2022/05/08 05:23:02;;;;;;;32.47;13.80;;;;;;;8.19;100.00;101220.81;5012743;28;20064;-79
2022/05/08 05:25:28;;;;;;;33.65;13.02;;;;;;;7.96;100.00;101228.88;5010309;28;20033;-80
2022/05/08 05:27:55;;;;;;;28.38;13.63;;;;;;;7.96;100.00;101234.00;5012480;28;20037;-79
2022/05/08 05:30:20;;;;;;;28.95;14.00;;;;;;;7.78;100.00;101194.44;5012474;28;20104;-77
2022/05/08 05:32:46;;;;;;;32.15;12.98;;;;;;;8.11;100.00;101214.34;5012834;28;20025;-77
2022/05/08 05:35:12;;;;;;;29.27;13.73;;;;;;;8.43;100.00;101228.19;5011885;28;20037;-77
2022/05/08 05:37:39;;;;;;;28.98;14.30;;;;;;;8.53;100.00;101221.94;5012117;28;20080;-77
2022/05/08 05:40:06;;;;;;;28.88;14.52;;;;;;;8.47;100.00;101188.13;5012197;28;20029;-75
2022/05/08 05:42:32;;;;;;;26.80;14.00;;;;;;;8.77;100.00;101224.13;5012233;28;20037;-77
2022/05/08 05:44:57;;;;;;;44.17;17.90;;;;;;;8.89;100.00;101236.00;5011906;28;20041;-75
2022/05/08 05:50:08;;;;;;;35.72;15.57;;;;;;;8.95;100.00;101198.50;5009229;28;20478;-77
2022/05/08 05:52:37;;;;;;;42.65;17.33;;;;;;;8.91;100.00;101194.91;4982397;28;20027;-77
2022/05/08 05:55:06;;;;;;;52.13;17.17;;;;;;;9.21;100.00;101212.84;4973270;28;20093;-77
2022/05/08 05:57:39;;;;;;;39.92;16.42;;;;;;;9.40;100.00;101227.59;4972708;28;20042;-78
2022/05/08 06:00:07;;;;;;;27.33;14.95;;;;;;;9.48;100.00;101223.75;4972189;28;20031;-76
2022/05/08 06:02:32;;;;;;;30.70;15.70;;;;;;;9.50;100.00;101216.09;4948593;28;20099;-77
2022/05/08 06:04:58;;;;;;;33.30;17.95;;;;;;;9.50;100.00;101226.41;4987911;28;20578;-76
2022/05/08 06:07:23;;;;;;;25.95;16.13;;;;;;;9.47;100.00;101221.97;4980903;28;20506;-75
2022/05/08 06:09:49;;;;;;;29.83;17.35;;;;;;;9.39;100.00;101200.94;4993478;28;20034;-77
2022/05/08 06:12:14;;;;;;;47.67;20.38;;;;;;;9.61;100.00;101219.22;5000915;28;20029;-77
2022/05/08 06:14:41;;;;;;;29.50;17.55;;;;;;;9.71;100.00;101222.38;5004939;28;20030;-77
2022/05/08 06:17:06;;;;;;;31.40;17.58;;;;;;;9.65;100.00;101204.00;5009207;28;20416;-77
2022/05/08 06:19:32;;;;;;;28.17;16.95;;;;;;;9.81;100.00;101223.75;4994472;28;20050;-76
2022/05/08 06:21:58;;;;;;;31.65;17.60;;;;;;;9.84;100.00;101223.91;4985423;28;20066;-75
2022/05/08 06:24:23;;;;;;;32.20;18.17;;;;;;;9.82;100.00;101215.19;4990722;28;20105;-75
2022/05/08 06:26:50;;;;;;;31.98;18.63;;;;;;;9.99;100.00;101226.41;4987881;28;20042;-80
2022/05/08 06:29:16;;;;;;;38.05;18.02;;;;;;;9.97;100.00;101207.38;4973131;28;20038;-75
2022/05/08 06:31:41;;;;;;;37.38;19.92;;;;;;;10.16;100.00;101224.66;4990843;28;20109;-81
2022/05/08 06:34:08;;;;;;;40.95;17.83;;;;;;;9.99;100.00;101176.47;4973546;28;20474;-79
2022/05/08 06:36:33;;;;;;;27.15;15.18;;;;;;;10.08;100.00;101184.72;4972376;28;20030;-78
2022/05/08 06:38:59;;;;;;;35.78;18.83;;;;;;;10.14;100.00;101177.28;4989706;28;20037;-77
2022/05/08 06:41:26;;;;;;;64.18;20.67;;;;;;;10.35;100.00;101194.63;4989136;28;20084;-78
2022/05/08 06:43:53;;;;;;;60.53;23.10;;;;;;;10.57;100.00;101213.78;4990773;28;20443;-76
2022/05/08 06:46:19;;;;;;;34.47;18.02;;;;;;;10.57;100.00;101212.09;4990835;28;20093;-79
2022/05/08 06:48:47;;;;;;;32.70;17.25;;;;;;;10.76;100.00;101213.84;4956437;28;20034;-77
2022/05/08 06:51:13;;;;;;;34.92;17.15;;;;;;;10.71;100.00;101204.13;4972248;28;20125;-76
2022/05/08 06:53:38;;;;;;;34.38;17.10;;;;;;;10.83;100.00;101217.63;4990455;28;20122;-76
2022/05/08 06:56:04;;;;;;;38.03;16.88;;;;;;;10.79;100.00;101187.28;4990772;28;20038;-82
2022/05/08 06:58:29;;;;;;;29.95;16.77;;;;;;;11.08;100.00;101213.59;4990233;28;20027;-78
2022/05/08 07:03:39;;;;;;;19.23;13.90;;;;;;;11.42;100.00;101213.47;4990779;28;20037;-79
2022/05/08 07:06:05;;;;;;;30.13;13.93;;;;;;;11.47;100.00;101204.22;4990383;28;20424;-78
2022/05/08 07:08:33;;;;;;;19.48;14.02;;;;;;;11.55;100.00;101214.94;4990654;28;20034;-76
2022/05/08 07:11:00;;;;;;;19.98;13.30;;;;;;;11.65;100.00;101209.34;4988213;28;20128;-78
2022/05/08 07:13:26;;;;;;;19.05;13.20;;;;;;;11.78;100.00;101205.59;4986089;28;20046;-78
2022/05/08 07:15:53;;;;;;;15.20;12.43;;;;;;;11.96;100.00;101207.22;4986029;28;20077;-78
2022/05/08 07:18:19;;;;;;;16.70;11.63;;;;;;;12.10;99.39;101207.81;4954942;28;20054;-76
2022/05/08 07:20:45;;;;;;;15.85;12.15;;;;;;;12.21;97.91;101209.19;4990138;28;20049;-77
2022/05/08 07:23:11;;;;;;;20.20;12.05;;;;;;;12.41;99.14;101212.59;4990210;28;20030;-75
2022/05/08 07:25:38;;;;;;;18.00;11.20;;;;;;;12.28;97.18;101185.28;4989659;28;20027;-76
2022/05/08 07:28:04;;;;;;;16.08;10.05;;;;;;;12.24;94.55;101205.84;4990528;28;20026;-74
2022/05/08 07:30:29;;;;;;;17.52;10.05;;;;;;;12.19;95.68;101205.63;4990585;28;20018;-77
2022/05/08 07:32:56;;;;;;;12.77;9.52;;;;;;;12.30;98.18;101195.75;4990179;28;20459;-77
2022/05/08 07:38:08;;;;;;;12.80;9.07;;;;;;;12.41;96.27;101190.97;4989984;28;20116;-76
2022/05/08 07:40:34;;;;;;;14.82;9.02;;;;;;;12.44;93.96;101192.00;4989573;28;20081;-77
2022/05/08 07:42:59;;;;;;;11.68;7.97;;;;;;;12.70;95.36;101199.06;4990725;28;20112;-77
2022/05/08 07:45:26;;;;;;;13.82;8.30;;;;;;;12.53;92.96;101136.22;4990858;28;20489;-79
2022/05/08 07:47:53;;;;;;;15.20;7.80;;;;;;;12.93;91.46;101200.88;4993219;28;20092;-79
2022/05/08 07:50:18;;;;;;;13.52;6.93;;;;;;;12.95;88.76;101200.91;4993827;28;20077;-80
2022/05/08 07:52:44;;;;;;;11.77;7.70;;;;;;;12.94;91.19;101163.72;4993804;28;20093;-78
2022/05/08 07:55:09;;;;;;;12.75;6.00;;;;;;;13.15;86.71;101187.84;4976861;28;20558;-79
2022/05/08 07:57:35;;;;;;;10.70;7.20;;;;;;;13.15;86.64;101164.50;4987860;28;20054;-81
2022/05/08 08:00:02;;;;;;;12.40;6.65;;;;;;;13.48;86.22;101179.56;4990526;28;20030;-78
2022/05/08 08:02:28;;;;;;;15.77;7.15;;;;;;;13.70;84.34;101161.34;4993671;28;20106;-80
2022/05/08 08:04:54;;;;;;;10.32;7.47;;;;;;;14.15;82.87;101186.25;4994057;28;20110;-79
2022/05/08 08:07:19;;;;;;;16.92;6.95;;;;;;;14.29;82.53;101186.69;4993232;28;20105;-79
2022/05/08 08:09:44;;;;;;;10.38;6.40;;;;;;;14.34;82.58;101164.38;4993660;28;20023;-78
2022/05/08 08:12:10;;;;;;;9.65;6.18;;;;;;;14.44;78.60;101156.88;4993906;28;20079;-80
2022/05/08 08:14:35;;;;;;;10.57;6.90;;;;;;;14.76;84.46;101167.44;4993721;28;20019;-79
2022/05/08 08:17:01;;;;;;;9.43;6.43;;;;;;;14.93;85.36;101174.03;4993566;28;20046;-78
2022/05/08 08:19:26;;;;;;;7.20;5.45;;;;;;;14.93;78.28;101178.34;4951837;29;20043;-77
2022/05/08 08:21:52;;;;;;;11.00;5.93;;;;;;;14.99;80.78;101181.13;4951946;29;20107;-77
2022/05/08 08:24:17;;;;;;;8.60;6.32;;;;;;;14.95;82.41;101172.34;4936471;29;20035;-80
2022/05/08 08:26:43;;;;;;;9.20;6.38;;;;;;;15.04;81.52;101170.03;4952616;28;20179;-78
2022/05/08 08:29:09;;;;;;;9.63;5.97;;;;;;;15.12;82.36;101170.25;4936006;29;20055;-83
2022/05/08 08:31:34;;;;;;;7.45;5.40;;;;;;;15.17;76.69;101168.69;4950906;28;20042;-77
2022/05/08 08:33:59;;;;;;;8.55;5.30;;;;;;;15.24;79.05;101172.34;4952215;29;20039;-78
2022/05/08 08:36:25;;;;;;;11.38;5.82;;;;;;;15.35;74.65;101168.34;4951808;29;20027;-81
2022/05/08 08:38:50;;;;;;;7.15;4.95;;;;;;;15.48;76.04;101153.94;4952382;29;20039;-80
2022/05/08 08:41:20;;;;;;;7.22;5.72;;;;;;;15.69;78.83;101166.66;4952447;29;20509;-81
2022/05/08 08:49:22;;;;;;;9.75;4.40;;;;;;;15.99;64.68;101152.72;4952567;28;20042;-81
2022/05/08 08:51:49;;;;;;;9.25;3.90;;;;;;;15.83;68.56;101103.72;4993222;28;20041;-81
2022/05/08 08:54:22;;;;;;;6.47;4.30;;;;;;;16.17;70.18;101141.91;4992734;28;20041;-80
2022/05/08 08:56:48;;;;;;;8.32;4.45;;;;;;;16.15;68.38;101135.78;4992979;28;20033;-81
2022/05/08 08:59:14;;;;;;;7.88;5.03;;;;;;;16.23;70.11;101128.13;4991383;28;21561;-83
2022/05/08 09:01:44;;;;;;;12.07;5.20;;;;;;;16.48;71.66;101137.41;4992776;28;20408;-82
2022/05/08 09:04:13;;;;;;;10.13;4.38;;;;;;;16.18;68.59;101140.16;4992951;28;20105;-78
2022/05/08 09:06:42;;;;;;;;;;;;;;;16.31;69.66;101134.44;4993171;28;20507;-79
2022/05/08 09:09:23;;;;;;;9.13;4.90;;;;;;;16.54;72.33;101136.69;4993086;28;19910;-79
2022/05/08 09:11:49;;;;;;;6.97;4.63;;;;;;;16.60;71.47;101123.78;4992606;28;20074;-81
2022/05/08 09:14:35;;;;;;;8.63;4.40;;;;;;;16.83;69.24;101128.63;4972059;28;20486;-83
2022/05/08 09:17:05;;;;;;;12.35;4.70;;;;;;;17.07;69.21;101143.97;4980670;28;20034;-83
2022/05/08 09:19:38;;;;;;;6.40;3.97;;;;;;;17.26;66.03;101133.91;4974273;28;20054;-84
2022/05/08 09:22:06;;;;;;;9.85;4.25;;;;;;;17.37;66.57;101132.41;5002167;28;20461;-77
2022/05/08 09:24:32;;;;;;;8.38;3.78;;;;;;;17.44;63.50;101128.16;4980171;28;20034;-77
2022/05/08 09:27:16;;;;;;;11.18;4.53;;;;;;;17.46;65.42;101129.94;4992929;28;20394;-81
2022/05/08 09:29:42;;;;;;;8.02;4.25;;;;;;;17.75;65.55;101126.13;4997144;28;20038;-80
2022/05/08 09:32:08;;;;;;;7.78;3.97;;;;;;;17.95;63.14;101129.13;4993251;28;20037;-81
2022/05/08 09:34:57;;;;;;;5.57;3.75;;;;;;;18.04;62.11;101112.72;4993121;28;20556;-80
2022/05/08 09:37:27;;;;;;;6.88;3.85;;;;;;;18.05;63.36;101101.41;4993042;28;20034;-78
2022/05/08 09:40:19;;;;;;;11.45;3.80;;;;;;;18.43;64.25;101114.22;4974397;28;20058;-79
2022/05/08 09:42:48;;;;;;;8.43;3.42;;;;;;;18.49;63.41;101106.47;4992654;28;20069;-78
2022/05/08 09:45:14;;;;;;;7.55;3.45;;;;;;;18.34;61.63;101064.41;4975941;28;20034;-81
2022/05/08 09:47:47;;;;;;;6.75;3.15;;;;;;;18.79;64.52;101112.97;4942264;28;20092;-78
2022/05/08 09:50:14;;;;;;;10.43;3.67;;;;;;;18.86;60.13;101099.09;4972559;28;20030;-78
2022/05/08 09:52:41;;;;;;;10.52;4.32;;;;;;;18.64;59.69;101024.75;4991937;28;20022;-78
2022/05/08 09:55:08;;;;;;;6.82;3.17;;;;;;;19.15;53.58;101075.09;4991745;28;20037;-77
2022/05/08 09:57:34;;;;;;;9.15;3.67;;;;;;;18.90;54.41;101053.84;4991939;28;20026;-77
2022/05/08 10:00:00;;;;;;;8.60;3.38;;;;;;;19.42;50.87;101085.84;4992397;28;20117;-80
2022/05/08 10:02:26;;;;;;;9.63;4.35;;;;;;;19.40;51.48;101059.59;4991604;28;20124;-77
2022/05/08 10:04:53;;;;;;;7.82;3.13;;;;;;;19.49;51.44;101080.66;4991536;28;20034;-80
2022/05/08 10:07:20;;;;;;;6.15;3.20;;;;;;;19.33;54.12;101034.25;4991451;28;20041;-80
2022/05/08 10:15:34;;;;;;;9.57;2.88;;;;;;;19.90;49.54;101066.22;4991294;28;20037;-78
2022/05/08 10:18:22;;;;;;;7.13;2.42;;;;;;;20.00;44.65;101064.53;4991307;28;20041;-79
2022/05/08 10:21:12;;;;;;;4.97;2.75;;;;;;;20.07;47.29;101055.00;4989181;28;20054;-77
2022/05/08 10:23:47;;;;;;;5.70;2.60;;;;;;;19.62;46.57;101057.22;4987504;28;20037;-77
2022/05/08 10:26:22;;;;;;;4.72;2.35;;;;;;;19.63;43.21;101051.13;4989018;28;20037;-78
2022/05/08 10:29:02;;;;;;;7.50;2.58;;;;;;;19.90;43.13;101047.00;4990534;28;20026;-80
2022/05/08 10:31:44;;;;;;;3.97;1.70;;;;;;;20.19;39.53;101050.69;4986451;28;20484;-79
2022/05/08 10:34:11;;;;;;;5.07;2.42;;;;;;;20.48;40.08;101043.88;4971574;28;20030;-79
2022/05/08 10:36:37;;;;;;;5.80;1.90;;;;;;;20.85;39.53;101038.81;4986203;28;20031;-81
2022/05/08 10:39:55;;;;;;;9.77;2.30;;;;;;;20.64;40.39;101035.19;4986676;28;20066;-79
2022/05/08 10:42:30;;;;;;;3.63;2.22;;;;;;;20.79;40.38;101037.03;4909137;29;20040;-81
2022/05/08 10:44:56;;;;;;;6.80;3.30;;;;;;;20.68;42.48;101028.22;4911323;29;20830;-82
2022/05/08 10:47:37;;;;;;;5.15;2.50;;;;;;;20.84;42.33;101030.06;4909328;29;20569;-82
2022/05/08 10:50:08;;;;;;;3.38;2.13;;;;;;;20.72;43.27;101021.28;4909652;29;20076;-79
2022/05/08 10:52:39;;;;;;;5.60;2.65;;;;;;;20.76;42.49;101020.41;4893856;29;20043;-81
2022/05/08 10:55:08;;;;;;;6.45;3.40;;;;;;;20.90;44.38;100981.09;4909118;29;20419;-79
2022/05/08 10:57:37;;;;;;;6.20;3.13;;;;;;;21.11;42.19;100968.03;4942339;28;20122;-81
2022/05/08 11:00:08;;;;;;;5.38;2.28;;;;;;;21.17;44.28;101002.16;4910806;29;20624;-80
2022/05/08 11:02:39;;;;;;;13.02;3.03;;;;;;;21.13;43.18;101000.41;4896266;29;20044;-82
2022/05/08 11:05:07;;;;;;;10.68;3.15;;;;;;;21.17;43.73;100988.13;4911990;29;20462;-80
2022/05/08 11:07:32;;;;;;;8.02;3.13;;;;;;;21.57;42.88;100995.19;4911936;29;20035;-80
2022/05/08 11:09:58;;;;;;;5.82;2.67;;;;;;;21.20;41.85;100933.03;4911972;29;20044;-80
2022/05/08 11:12:24;;;;;;;7.15;3.55;;;;;;;21.36;42.14;100982.91;4908744;29;20198;-82
2022/05/08 11:14:50;;;;;;;5.35;2.55;;;;;;;21.56;42.66;100975.06;4895137;29;20165;-88
2022/05/08 11:17:16;;;;;;;5.53;2.90;;;;;;;21.80;42.63;100977.66;4923986;28;20057;-80
2022/05/08 11:19:52;;;;;;;6.50;3.00;;;;;;;21.84;44.04;100964.53;4990575;28;20472;-80
2022/05/08 11:22:17;;;;;;;4.53;2.60;;;;;;;21.73;43.24;100978.56;4987736;28;20030;-78
2022/05/08 11:24:46;;;;;;;5.28;2.70;;;;;;;21.56;42.90;100975.94;4955503;28;20386;-79
2022/05/08 11:27:14;;;;;;;6.45;3.00;;;;;;;21.40;42.75;100954.03;4989335;28;20018;-79
2022/05/08 11:29:47;;;;;;;7.47;3.15;;;;;;;21.87;43.17;100965.41;4987602;28;20041;-82
2022/05/08 11:38:03;;;;;;;8.88;2.92;;;;;;;22.51;41.47;100958.22;4989981;28;20058;-77
2022/05/08 11:40:29;;;;;;;5.55;2.50;;;;;;;22.65;40.90;100955.50;4989541;28;20105;-77
2022/05/08 11:42:55;;;;;;;5.10;2.60;;;;;;;22.43;40.37;100931.06;4989455;28;20110;-81
2022/05/08 11:45:21;;;;;;;8.90;3.05;;;;;;;22.66;40.25;100952.00;4989380;28;20075;-79
2022/05/08 11:47:53;;;;;;;10.90;3.08;;;;;;;22.84;39.70;100942.25;4989766;28;20457;-84
2022/05/08 11:50:19;;;;;;;6.43;2.85;;;;;;;23.14;40.38;100942.91;4970938;28;20041;-77
2022/05/08 11:52:45;;;;;;;6.90;2.75;;;;;;;23.39;38.92;100949.78;4989438;28;20034;-77